createdAt,value
2023-02-27T00:04:03.947Z,-1.82
2023-02-27T00:09:26.115Z,-1.86
2023-02-27T00:14:51.434Z,-1.93
2023-02-27T00:20:16.779Z,-1.96
2023-02-27T00:25:38.806Z,-2.00
2023-02-27T00:31:04.734Z,-2.05
2023-02-27T00:36:26.957Z,-2.07
2023-02-27T00:41:49.042Z,-2.12
2023-02-27T00:47:11.049Z,-2.20
2023-02-27T00:52:34.851Z,-2.26
2023-02-27T00:57:56.840Z,-2.33
2023-02-27T01:03:18.841Z,-2.37
2023-02-27T01:08:41.727Z,-2.42
2023-02-27T01:14:03.817Z,-2.47
2023-02-27T01:19:26.097Z,-2.54
2023-02-27T01:24:48.112Z,-2.54
2023-02-27T01:30:11.730Z,-2.58
2023-02-27T01:35:33.709Z,-2.63
2023-02-27T01:40:57.288Z,-2.68
2023-02-27T01:46:24.055Z,-2.70
2023-02-27T01:51:50.666Z,-2.75
2023-02-27T01:57:12.658Z,-2.80
2023-02-27T02:02:37.756Z,-2.83
2023-02-27T02:08:07.731Z,-2.87
2023-02-27T02:13:29.895Z,-2.95
2023-02-27T02:19:20.631Z,-2.99
2023-02-27T02:25:12.485Z,-3.04
2023-02-27T02:30:55.443Z,-3.09
2023-02-27T02:36:32.752Z,-3.11
2023-02-27T02:42:05.844Z,-3.16
2023-02-27T02:47:40.970Z,-3.21
2023-02-27T02:53:18.095Z,-3.27
2023-02-27T02:59:04.441Z,-3.29
2023-02-27T03:05:01.370Z,-3.31
2023-02-27T03:10:45.516Z,-3.37
2023-02-27T03:16:18.344Z,-3.40
2023-02-27T03:22:05.324Z,-3.44
2023-02-27T03:27:32.049Z,-3.50
2023-02-27T03:33:16.561Z,-3.52
2023-02-27T03:38:48.679Z,-3.56
2023-02-27T03:44:36.373Z,-3.64
2023-02-27T03:49:59.029Z,-3.67
2023-02-27T03:55:26.850Z,-3.67
2023-02-27T04:00:49.519Z,-3.61
2023-02-27T04:06:30.308Z,-3.40
2023-02-27T04:12:32.386Z,-3.04
2023-02-27T04:18:16.308Z,-2.78
2023-02-27T04:23:50.069Z,-2.60
2023-02-27T04:29:19.741Z,-2.44
2023-02-27T04:34:53.195Z,-2.26
2023-02-27T04:40:21.142Z,-2.11
2023-02-27T04:45:45.609Z,-1.95
2023-02-27T04:51:14.066Z,-1.82
2023-02-27T04:56:44.133Z,-1.73
2023-02-27T05:02:13.216Z,-1.62
2023-02-27T05:08:02.386Z,-1.51
2023-02-27T05:13:29.744Z,-1.42
2023-02-27T05:18:51.751Z,-1.30
2023-02-27T05:24:34.769Z,-1.14
2023-02-27T05:30:00.820Z,-0.95
2023-02-27T05:35:30.825Z,-0.86
2023-02-27T05:41:01.235Z,-0.80
2023-02-27T05:46:29.992Z,-0.76
2023-02-27T05:51:54.933Z,-0.68
2023-02-27T05:57:22.620Z,-0.63
2023-02-27T06:02:45.234Z,-0.52
2023-02-27T06:08:08.839Z,-0.51
2023-02-27T06:13:31.118Z,-0.48
2023-02-27T06:18:53.258Z,-0.48
2023-02-27T06:24:17.665Z,-0.46
2023-02-27T06:29:41.876Z,-0.37
2023-02-27T06:35:06.545Z,-0.07
2023-02-27T06:40:28.854Z,-0.29
2023-02-27T06:45:56.103Z,-0.27
2023-02-27T06:51:21.023Z,-0.10
2023-02-27T06:56:45.268Z,0.09
2023-02-27T07:02:12.464Z,0.25
2023-02-27T07:07:38.238Z,0.37
2023-02-27T07:13:01.230Z,0.49
2023-02-27T07:18:25.686Z,0.75
2023-02-27T07:23:47.949Z,1.00
2023-02-27T07:29:10.040Z,1.35
2023-02-27T07:34:32.048Z,1.50
2023-02-27T07:39:56.374Z,1.65
2023-02-27T07:45:18.605Z,1.77
2023-02-27T07:50:40.648Z,1.93
2023-02-27T07:56:05.477Z,1.99
2023-02-27T08:01:27.446Z,2.15
2023-02-27T08:06:51.871Z,2.26
2023-02-27T08:12:16.197Z,2.44
2023-02-27T08:17:38.239Z,2.68
2023-02-27T08:23:00.540Z,3.03
2023-02-27T08:28:25.273Z,3.35
2023-02-27T08:34:00.810Z,3.45
2023-02-27T08:39:30.376Z,3.58
2023-02-27T08:44:54.915Z,3.61
2023-02-27T08:50:18.350Z,3.75
2023-02-27T08:55:40.589Z,4.00
2023-02-27T09:01:04.832Z,4.10
2023-02-27T09:06:26.900Z,4.32
2023-02-27T09:11:49.793Z,4.59
2023-02-27T09:17:11.991Z,4.56
2023-02-27T09:22:34.135Z,4.55
2023-02-27T09:27:59.036Z,4.73
2023-02-27T09:33:21.022Z,4.82
2023-02-27T09:38:43.397Z,4.76
2023-02-27T09:44:14.799Z,4.98
2023-02-27T09:49:48.304Z,5.01
2023-02-27T09:55:17.888Z,5.12
2023-02-27T10:00:45.921Z,5.28
2023-02-27T10:06:34.021Z,5.60
2023-02-27T10:12:29.413Z,5.74
2023-02-27T10:17:54.399Z,5.78
2023-02-27T10:23:23.369Z,5.85
2023-02-27T10:28:47.595Z,6.13
2023-02-27T10:34:14.868Z,6.50
2023-02-27T10:39:48.255Z,6.70
2023-02-27T10:45:17.201Z,6.73
2023-02-27T10:50:45.040Z,6.95
2023-02-27T10:56:10.673Z,6.72
2023-02-27T11:01:49.546Z,6.64
2023-02-27T11:07:14.324Z,6.79
2023-02-27T11:12:41.341Z,7.19
2023-02-27T11:18:22.136Z,7.91
2023-02-27T11:23:49.986Z,8.29
2023-02-27T11:29:19.013Z,8.27
2023-02-27T11:34:48.614Z,7.86
2023-02-27T11:40:12.779Z,7.88
2023-02-27T11:46:04.904Z,8.17
2023-02-27T11:51:46.840Z,8.45
2023-02-27T11:57:18.457Z,8.78
2023-02-27T12:03:01.944Z,8.92
2023-02-27T12:08:46.595Z,8.97
2023-02-27T12:14:10.534Z,9.06
2023-02-27T12:19:40.439Z,9.06
2023-02-27T12:25:08.326Z,9.04
2023-02-27T12:30:39.592Z,9.03
2023-02-27T12:36:03.129Z,8.62
2023-02-27T12:41:31.064Z,8.44
2023-02-27T12:47:25.115Z,8.45
2023-02-27T12:53:13.764Z,8.84
2023-02-27T12:59:06.095Z,9.12
2023-02-27T13:04:47.597Z,8.69
2023-02-27T13:10:22.270Z,8.93
2023-02-27T13:15:52.247Z,8.81
2023-02-27T13:21:24.265Z,8.77
2023-02-27T13:26:58.543Z,9.01
2023-02-27T13:32:41.612Z,8.93
2023-02-27T13:38:45.563Z,9.11
2023-02-27T13:44:19.807Z,9.26
2023-02-27T13:49:45.011Z,9.10
2023-02-27T13:55:27.734Z,9.12
2023-02-27T14:00:56.895Z,9.08
2023-02-27T14:06:21.655Z,9.01
2023-02-27T14:11:55.451Z,9.00
2023-02-27T14:17:41.079Z,8.77
2023-02-27T14:23:15.061Z,8.73
2023-02-27T14:28:56.455Z,8.55
2023-02-27T14:34:22.214Z,8.40
2023-02-27T14:39:44.765Z,8.17
2023-02-27T14:45:19.912Z,7.87
2023-02-27T14:50:42.504Z,7.82
2023-02-27T14:56:06.840Z,7.89
2023-02-27T15:01:35.367Z,7.59
2023-02-27T15:07:03.085Z,7.69
2023-02-27T15:12:28.115Z,8.06
2023-02-27T15:17:57.502Z,7.73
2023-02-27T15:23:26.002Z,7.65
2023-02-27T15:28:50.745Z,7.64
2023-02-27T15:34:15.536Z,7.46
2023-02-27T15:39:42.758Z,7.17
2023-02-27T15:45:08.080Z,7.10
2023-02-27T15:50:34.035Z,6.89
2023-02-27T15:56:02.009Z,6.81
2023-02-27T16:01:29.653Z,6.78
2023-02-27T16:07:02.089Z,6.54
2023-02-27T16:12:31.555Z,6.40
2023-02-27T16:18:08.552Z,6.30
2023-02-27T16:23:32.008Z,6.20
2023-02-27T16:28:54.027Z,6.09
2023-02-27T16:34:26.100Z,5.94
2023-02-27T16:39:52.448Z,5.78
2023-02-27T16:45:17.007Z,5.80
2023-02-27T16:50:41.474Z,5.75
2023-02-27T16:56:03.669Z,5.62
2023-02-27T17:01:28.870Z,5.57
2023-02-27T17:06:51.523Z,5.56
2023-02-27T17:12:13.862Z,5.51
2023-02-27T17:17:38.150Z,5.46
2023-02-27T17:23:00.301Z,5.51
2023-02-27T17:28:22.774Z,5.58
2023-02-27T17:33:44.877Z,5.50
2023-02-27T17:39:07.483Z,5.45
2023-02-27T17:44:29.815Z,5.28
2023-02-27T17:49:51.849Z,5.10
2023-02-27T17:55:15.856Z,4.84
2023-02-27T18:00:37.960Z,4.64
2023-02-27T18:06:05.163Z,4.64
2023-02-27T18:11:27.182Z,4.73
2023-02-27T18:16:52.264Z,4.76
2023-02-27T18:22:15.455Z,4.81
2023-02-27T18:27:40.356Z,4.83
2023-02-27T18:33:04.626Z,4.85
2023-02-27T18:38:29.314Z,4.81
2023-02-27T18:43:53.809Z,4.83
2023-02-27T18:49:15.906Z,4.85
2023-02-27T18:54:38.431Z,4.92
2023-02-27T19:00:03.418Z,4.93
2023-02-27T19:05:25.593Z,4.94
2023-02-27T19:10:47.670Z,4.92
2023-02-27T19:16:30.311Z,4.85
2023-02-27T19:21:53.598Z,4.85
2023-02-27T19:27:18.156Z,4.81
2023-02-27T19:32:40.363Z,4.68
2023-02-27T19:38:07.587Z,4.58
2023-02-27T19:43:31.894Z,4.50
2023-02-27T19:48:58.350Z,4.38
2023-02-27T19:54:20.446Z,4.32
2023-02-27T19:59:47.584Z,4.25
2023-02-27T20:05:12.130Z,4.19
2023-02-27T20:10:44.200Z,4.20
2023-02-27T20:16:08.506Z,4.22
2023-02-27T20:21:41.223Z,4.23
2023-02-27T20:27:07.245Z,4.23
2023-02-27T20:32:32.436Z,4.17
2023-02-27T20:37:54.527Z,4.18
2023-02-27T20:43:19.105Z,4.20
2023-02-27T20:48:41.759Z,4.56
2023-02-27T20:54:09.949Z,4.70
2023-02-27T20:59:32.342Z,4.56
2023-02-27T21:04:54.746Z,4.51
2023-02-27T21:10:20.015Z,4.40
2023-02-27T21:15:42.205Z,4.33
2023-02-27T21:21:13.253Z,4.31
2023-02-27T21:26:40.614Z,4.19
2023-02-27T21:32:08.628Z,4.19
2023-02-27T21:37:33.109Z,4.17
2023-02-27T21:42:55.494Z,4.14
2023-02-27T21:48:18.283Z,4.12
2023-02-27T21:53:40.503Z,4.10
2023-02-27T21:59:05.486Z,4.12
2023-02-27T22:04:27.476Z,4.13
2023-02-27T22:09:52.565Z,4.09
2023-02-27T22:15:14.797Z,4.08
2023-02-27T22:20:39.933Z,4.09
2023-02-27T22:26:07.948Z,4.07
2023-02-27T22:31:36.876Z,4.02
2023-02-27T22:37:01.205Z,4.03
2023-02-27T22:42:23.707Z,4.02
2023-02-27T22:47:45.795Z,4.02
2023-02-27T22:53:07.832Z,4.02
2023-02-27T22:58:37.132Z,3.96
2023-02-27T23:04:01.355Z,3.87
2023-02-27T23:09:28.541Z,3.84
2023-02-27T23:14:52.641Z,3.77
2023-02-27T23:20:14.807Z,3.70
2023-02-27T23:25:37.895Z,3.64
2023-02-27T23:31:02.117Z,3.58
2023-02-27T23:36:24.122Z,3.55
2023-02-27T23:41:46.139Z,3.55
2023-02-27T23:47:10.436Z,3.58
2023-02-27T23:52:32.521Z,3.53
2023-02-27T23:57:56.135Z,3.56
